Terminal Aerodrome Forecast
Issued by NWS

Current Version | Previous Version | Text Only | Print | Product List | Glossary On
Versions: 1 2 3 4 5 6 7 8 9 10 11 12 13
000
FTUS44 KJAN 301813 RRA
TAFHKS
TAF
KHKS 301813Z 3018/0118 15010KT P6SM -SHRA VCTS BKN015 OVC025CB
      TEMPO 3020/3022 VRB20G30KT 2SM TSRA BKN010CB
     FM010200 23010KT P6SM SCT015 OVC100
     FM010800 17007KT 5SM BR VCSH OVC020
     FM011100 21008KT 5SM -SHRA OVC015=

USA.gov is the U.S. government's official web portal to all federal, state and local government web resources and services.